createdAt,value
2022-11-04T00:02:18.136Z,7.90
2022-11-04T00:04:44.828Z,8.00
2022-11-04T00:07:31.447Z,9.20
2022-11-04T00:09:58.120Z,9.80
2022-11-04T00:12:24.881Z,8.60
2022-11-04T00:14:51.557Z,7.47
2022-11-04T00:17:24.084Z,10.00
2022-11-04T00:20:13.949Z,11.60
2022-11-04T00:23:00.828Z,9.37
2022-11-04T00:25:46.506Z,8.07
2022-11-04T00:28:35.817Z,9.30
2022-11-04T00:31:31.646Z,7.80
2022-11-04T00:33:58.862Z,15.23
2022-11-04T00:36:26.356Z,10.53
2022-11-04T00:38:53.756Z,10.03
2022-11-04T00:41:26.686Z,10.93
2022-11-04T00:43:59.081Z,8.53
2022-11-04T00:46:26.990Z,10.90
2022-11-04T00:48:53.938Z,8.83
2022-11-04T00:51:21.592Z,8.27
2022-11-04T00:53:48.947Z,9.03
2022-11-04T00:56:15.618Z,7.37
2022-11-04T00:58:42.514Z,8.03
2022-11-04T01:01:17.891Z,9.43
2022-11-04T01:03:46.412Z,11.97
2022-11-04T01:06:13.023Z,7.63
2022-11-04T01:08:40.406Z,9.47
2022-11-04T01:11:09.407Z,9.80
2022-11-04T01:13:36.991Z,8.43
2022-11-04T01:16:11.865Z,12.00
2022-11-04T01:18:41.625Z,14.70
2022-11-04T01:21:10.705Z,10.40
2022-11-04T01:23:37.823Z,9.90
2022-11-04T01:26:10.033Z,13.93
2022-11-04T01:28:36.741Z,13.20
2022-11-04T01:31:10.946Z,13.80
2022-11-04T01:33:38.594Z,18.60
2022-11-04T01:36:07.775Z,15.83
2022-11-04T01:38:34.934Z,11.13
2022-11-04T01:41:02.098Z,16.47
2022-11-04T01:43:49.871Z,9.40
2022-11-04T01:46:50.696Z,11.30
2022-11-04T01:49:23.307Z,19.47
2022-11-04T01:51:53.577Z,15.33
2022-11-04T01:54:21.181Z,13.83
2022-11-04T01:56:49.094Z,13.33
2022-11-04T01:59:25.670Z,13.10
2022-11-04T02:01:52.590Z,9.67
2022-11-04T02:04:26.791Z,11.40
2022-11-04T02:06:59.933Z,17.43
2022-11-04T02:09:32.475Z,16.70
2022-11-04T02:12:17.748Z,25.53
2022-11-04T02:14:47.979Z,26.23
2022-11-04T02:17:17.755Z,16.47
2022-11-04T02:19:53.406Z,13.70
2022-11-04T02:22:48.071Z,14.00
2022-11-04T02:25:39.206Z,16.27
2022-11-04T02:28:49.072Z,12.30
2022-11-04T02:31:52.160Z,13.80
2022-11-04T02:34:29.254Z,11.73
2022-11-04T02:37:09.291Z,10.23
2022-11-04T02:39:54.005Z,16.63
2022-11-04T02:42:33.107Z,13.67
2022-11-04T02:45:07.643Z,13.73
2022-11-04T02:47:41.936Z,14.03
2022-11-04T02:50:15.267Z,9.37
2022-11-04T02:52:57.928Z,8.30
2022-11-04T02:55:34.453Z,12.67
2022-11-04T02:58:04.922Z,11.63
2022-11-04T03:00:33.313Z,10.70
2022-11-04T03:03:07.260Z,13.33
2022-11-04T03:05:37.414Z,12.00
2022-11-04T03:08:28.378Z,9.70
2022-11-04T03:11:06.064Z,9.73
2022-11-04T03:13:39.865Z,12.67
2022-11-04T03:16:15.261Z,10.37
2022-11-04T03:19:01.464Z,9.67
2022-11-04T03:21:32.807Z,14.57
2022-11-04T03:24:00.448Z,13.50
2022-11-04T03:26:33.802Z,9.80
2022-11-04T03:29:18.709Z,10.43
2022-11-04T03:31:48.053Z,10.67
2022-11-04T03:34:14.832Z,10.70
2022-11-04T03:36:41.476Z,9.53
2022-11-04T03:39:08.178Z,8.97
2022-11-04T03:41:42.716Z,10.20
2022-11-04T03:44:09.501Z,6.90
2022-11-04T03:46:36.131Z,9.03
2022-11-04T03:49:03.303Z,8.23
2022-11-04T03:51:29.962Z,12.23
2022-11-04T03:53:57.989Z,7.40
2022-11-04T03:56:46.926Z,5.13
2022-11-04T03:59:44.385Z,5.07
2022-11-04T04:02:19.610Z,7.50
2022-11-04T04:05:01.920Z,5.40
2022-11-04T04:07:42.722Z,4.60
2022-11-04T04:10:34.988Z,4.77
2022-11-04T04:13:09.021Z,4.30
2022-11-04T04:15:46.088Z,4.63
2022-11-04T04:18:17.045Z,4.33
2022-11-04T04:20:47.934Z,4.50
2022-11-04T04:23:42.881Z,4.63
2022-11-04T04:26:30.825Z,6.90
2022-11-04T04:28:59.263Z,4.63
2022-11-04T04:31:46.974Z,4.27
2022-11-04T04:34:13.690Z,4.97
2022-11-04T04:36:54.380Z,5.23
2022-11-04T04:39:44.038Z,4.03
2022-11-04T04:42:29.678Z,4.27
2022-11-04T04:45:03.561Z,4.43
2022-11-04T04:47:43.073Z,5.43
2022-11-04T04:50:13.079Z,4.20
2022-11-04T04:52:44.947Z,3.37
2022-11-04T04:55:12.509Z,5.07
2022-11-04T04:57:39.202Z,3.50
2022-11-04T05:00:08.940Z,2.87
2022-11-04T05:02:35.810Z,4.13
2022-11-04T05:05:02.723Z,2.50
2022-11-04T05:07:29.786Z,3.57
2022-11-04T05:09:56.518Z,6.90
2022-11-04T05:12:23.191Z,4.47
2022-11-04T05:14:49.928Z,4.10
2022-11-04T05:17:16.579Z,3.73
2022-11-04T05:19:43.174Z,4.10
2022-11-04T05:22:09.844Z,4.40
2022-11-04T05:24:36.413Z,3.70
2022-11-04T05:27:03.173Z,4.17
2022-11-04T05:29:29.886Z,4.03
2022-11-04T05:31:57.050Z,4.13
2022-11-04T05:34:23.734Z,5.20
2022-11-04T05:36:50.373Z,5.87
2022-11-04T05:39:17.224Z,6.40
2022-11-04T05:41:43.840Z,5.00
2022-11-04T05:44:10.773Z,5.43
2022-11-04T05:46:37.543Z,3.70
2022-11-04T05:49:04.906Z,5.70
2022-11-04T05:51:32.436Z,7.10
2022-11-04T05:53:59.350Z,4.63
2022-11-04T05:56:26.013Z,3.80
2022-11-04T05:58:52.692Z,5.70
2022-11-04T06:01:37.301Z,5.27
2022-11-04T06:04:05.810Z,8.10
2022-11-04T06:06:35.884Z,6.07
2022-11-04T06:09:03.361Z,6.10
2022-11-04T06:11:30.759Z,5.70
2022-11-04T06:13:58.182Z,7.03
2022-11-04T06:16:25.443Z,4.40
2022-11-04T06:18:52.863Z,5.37
2022-11-04T06:21:25.413Z,4.30
2022-11-04T06:23:54.097Z,5.87
2022-11-04T06:26:23.864Z,4.67
2022-11-04T06:28:53.796Z,6.60
2022-11-04T06:31:21.225Z,3.77
2022-11-04T06:33:48.006Z,4.40
2022-11-04T06:36:15.769Z,4.20
2022-11-04T06:38:42.864Z,6.17
2022-11-04T06:41:13.718Z,6.97
2022-11-04T06:43:40.709Z,7.20
2022-11-04T06:46:31.764Z,5.70
2022-11-04T06:48:58.467Z,3.37
2022-11-04T06:51:25.749Z,4.23
2022-11-04T06:53:52.499Z,3.20
2022-11-04T06:56:19.150Z,4.10
2022-11-04T06:58:53.979Z,3.10
2022-11-04T07:01:22.634Z,3.23
2022-11-04T07:03:56.205Z,3.50
2022-11-04T07:06:23.095Z,3.50
2022-11-04T07:08:51.633Z,3.90
2022-11-04T07:11:21.160Z,3.17
2022-11-04T07:13:49.003Z,3.07
2022-11-04T07:16:16.723Z,2.77
2022-11-04T07:18:43.452Z,2.47
2022-11-04T07:21:10.685Z,3.10
2022-11-04T07:23:37.575Z,2.43
2022-11-04T07:26:07.287Z,4.80
2022-11-04T07:28:35.208Z,3.37
2022-11-04T07:31:04.169Z,3.50
2022-11-04T07:33:32.761Z,3.87
2022-11-04T07:36:03.171Z,3.07
2022-11-04T07:38:29.778Z,8.70
2022-11-04T07:40:58.219Z,3.23
2022-11-04T07:43:24.904Z,2.80
2022-11-04T07:46:03.738Z,2.00
2022-11-04T07:48:30.461Z,2.00
2022-11-04T07:50:59.695Z,2.60
2022-11-04T07:53:30.623Z,4.43
2022-11-04T07:55:57.784Z,2.60
2022-11-04T07:58:25.595Z,5.10
2022-11-04T08:00:58.203Z,3.40
2022-11-04T08:03:24.957Z,3.33
2022-11-04T08:05:59.343Z,2.27
2022-11-04T08:08:27.232Z,2.03
2022-11-04T08:11:00.504Z,4.50
2022-11-04T08:13:29.174Z,2.03
2022-11-04T08:15:56.779Z,2.43
2022-11-04T08:18:23.673Z,3.43
2022-11-04T08:20:51.959Z,5.43
2022-11-04T08:23:19.414Z,9.20
2022-11-04T08:25:46.487Z,2.43
2022-11-04T08:28:17.405Z,2.10
2022-11-04T08:30:59.477Z,2.93
2022-11-04T08:33:27.459Z,2.53
2022-11-04T08:35:56.653Z,5.80
2022-11-04T08:38:23.261Z,3.00
2022-11-04T08:40:50.040Z,3.67
2022-11-04T08:43:16.909Z,4.50
2022-11-04T08:45:46.033Z,4.57
2022-11-04T08:48:14.162Z,2.47
2022-11-04T08:50:41.069Z,3.40
2022-11-04T08:53:08.134Z,4.20
2022-11-04T08:55:35.668Z,5.67
2022-11-04T08:58:02.800Z,5.60
2022-11-04T09:00:29.619Z,3.40
2022-11-04T09:02:56.273Z,3.93
2022-11-04T09:05:23.187Z,2.07
2022-11-04T09:07:49.792Z,3.93
2022-11-04T09:10:17.307Z,3.50
2022-11-04T09:12:44.951Z,3.90
2022-11-04T09:15:12.258Z,2.73
2022-11-04T09:17:38.885Z,2.87
2022-11-04T09:20:06.460Z,3.50
2022-11-04T09:22:33.246Z,3.00
2022-11-04T09:24:59.893Z,4.30
2022-11-04T09:27:26.532Z,4.10
2022-11-04T09:29:53.199Z,5.90
2022-11-04T09:32:19.927Z,6.40
2022-11-04T09:34:46.711Z,5.47
2022-11-04T09:37:13.821Z,10.03
2022-11-04T09:39:40.476Z,4.97
2022-11-04T09:42:44.977Z,4.83
2022-11-04T09:45:23.112Z,5.17
2022-11-04T09:47:52.628Z,2.83
2022-11-04T09:50:25.190Z,4.73
2022-11-04T09:53:00.254Z,3.00
2022-11-04T09:55:39.267Z,8.40
2022-11-04T09:58:12.324Z,4.60
2022-11-04T10:00:40.077Z,14.70
2022-11-04T10:03:18.811Z,17.70
2022-11-04T10:05:56.772Z,4.50
2022-11-04T10:08:37.895Z,7.47
2022-11-04T10:11:26.609Z,3.57
2022-11-04T10:14:21.326Z,2.50
2022-11-04T10:16:56.966Z,6.30
2022-11-04T10:19:57.314Z,2.90
2022-11-04T10:22:52.760Z,6.13
2022-11-04T10:25:28.558Z,4.53
2022-11-04T10:27:55.310Z,2.90
2022-11-04T10:30:25.079Z,3.40
2022-11-04T10:33:27.832Z,2.87
2022-11-04T10:35:59.990Z,4.67
2022-11-04T10:38:33.602Z,4.77
2022-11-04T10:41:05.976Z,3.97
2022-11-04T10:43:39.640Z,2.40
2022-11-04T10:46:38.841Z,2.63
2022-11-04T10:50:06.854Z,1.97
2022-11-04T10:52:35.371Z,1.47
2022-11-04T10:55:02.141Z,1.90
2022-11-04T10:57:30.921Z,2.43
2022-11-04T11:00:01.690Z,5.67
2022-11-04T11:02:37.565Z,3.63
2022-11-04T11:05:15.062Z,1.23
2022-11-04T11:07:42.258Z,2.40
2022-11-04T11:10:24.172Z,6.00
2022-11-04T11:12:52.971Z,3.70
2022-11-04T11:15:22.594Z,3.90
2022-11-04T11:17:50.384Z,1.77
2022-11-04T11:20:25.445Z,2.23
2022-11-04T11:22:52.507Z,2.43
2022-11-04T11:25:35.752Z,2.80
2022-11-04T11:28:09.274Z,5.00
2022-11-04T11:30:44.051Z,2.10
2022-11-04T11:33:28.201Z,2.93
2022-11-04T11:35:58.911Z,7.03
2022-11-04T11:38:31.674Z,5.07
2022-11-04T11:41:28.462Z,2.03
2022-11-04T11:43:56.016Z,2.40
2022-11-04T11:46:29.119Z,7.40
2022-11-04T11:49:01.299Z,6.73
2022-11-04T11:51:32.875Z,1.57
2022-11-04T11:54:33.680Z,2.40
2022-11-04T11:57:15.063Z,6.73
2022-11-04T12:03:03.175Z,2.20
2022-11-04T12:11:38.698Z,3.70
2022-11-04T12:14:18.893Z,9.13
2022-11-04T12:17:23.294Z,2.53
2022-11-04T12:19:53.123Z,1.70
2022-11-04T12:22:47.696Z,8.50
2022-11-04T12:25:17.192Z,1.40
2022-11-04T12:27:55.984Z,2.20
2022-11-04T12:30:32.271Z,2.60
2022-11-04T12:33:14.483Z,3.93
2022-11-04T12:35:44.038Z,1.67
2022-11-04T12:38:36.322Z,3.10
2022-11-04T12:42:06.442Z,3.70
2022-11-04T12:44:36.750Z,2.23
2022-11-04T12:47:12.386Z,4.37
2022-11-04T12:49:54.399Z,3.00
2022-11-04T12:52:39.014Z,3.27
2022-11-04T12:55:24.075Z,2.03
2022-11-04T12:57:53.838Z,4.33
2022-11-04T13:00:24.744Z,3.03
2022-11-04T13:03:02.366Z,9.40
2022-11-04T13:05:46.384Z,4.70
2022-11-04T13:08:27.346Z,1.83
2022-11-04T13:11:06.177Z,2.50
2022-11-04T13:13:39.003Z,4.30
2022-11-04T13:16:12.350Z,6.63
2022-11-04T13:18:41.278Z,4.33
2022-11-04T13:21:14.305Z,4.47
2022-11-04T13:23:51.363Z,3.63
2022-11-04T13:26:18.661Z,5.30
2022-11-04T13:28:50.374Z,6.27
2022-11-04T13:31:32.224Z,4.13
2022-11-04T13:34:02.426Z,5.30
2022-11-04T13:36:47.382Z,4.40
2022-11-04T13:39:17.744Z,3.50
2022-11-04T13:41:56.801Z,2.80
2022-11-04T13:44:31.037Z,2.67
2022-11-04T13:47:01.590Z,6.13
2022-11-04T13:49:34.459Z,4.87
2022-11-04T13:52:13.531Z,3.20
2022-11-04T13:54:55.378Z,4.13
2022-11-04T13:57:25.564Z,4.27
2022-11-04T14:00:11.240Z,4.57
2022-11-04T14:02:42.375Z,2.20
2022-11-04T14:05:27.515Z,3.67
2022-11-04T14:08:03.438Z,5.23
2022-11-04T14:10:48.500Z,4.73
2022-11-04T14:13:27.559Z,3.73
2022-11-04T14:16:01.696Z,5.10
2022-11-04T14:18:33.982Z,3.40
2022-11-04T14:21:11.490Z,12.10
2022-11-04T14:23:40.018Z,3.37
2022-11-04T14:26:12.751Z,5.23
2022-11-04T14:28:43.586Z,3.23
2022-11-04T14:31:17.446Z,1.90
2022-11-04T14:33:53.709Z,3.73
2022-11-04T14:36:20.571Z,6.10
2022-11-04T14:38:53.234Z,4.13
2022-11-04T14:41:28.934Z,4.37
2022-11-04T14:44:08.014Z,4.80
2022-11-04T14:46:44.047Z,3.50
2022-11-04T14:49:44.850Z,3.60
2022-11-04T14:52:33.389Z,3.10
2022-11-04T14:55:15.314Z,8.67
2022-11-04T14:57:44.701Z,11.17
2022-11-04T15:00:33.290Z,5.80
2022-11-04T15:06:07.539Z,4.90
2022-11-04T15:08:43.879Z,12.30
2022-11-04T15:11:16.515Z,10.40
2022-11-04T15:13:49.365Z,7.00
2022-11-04T15:16:16.013Z,12.27
2022-11-04T15:18:43.037Z,8.70
2022-11-04T15:21:10.555Z,10.50
2022-11-04T15:23:43.907Z,10.40
2022-11-04T15:26:30.060Z,8.30
2022-11-04T15:29:00.138Z,9.27
2022-11-04T15:31:32.635Z,7.03
2022-11-04T15:34:02.168Z,12.03
2022-11-04T15:36:37.037Z,17.67
2022-11-04T15:39:19.640Z,8.77
2022-11-04T15:42:06.407Z,35.13
2022-11-04T15:44:36.600Z,17.90
2022-11-04T15:47:25.011Z,9.90
2022-11-04T15:49:53.717Z,10.77
2022-11-04T15:52:24.731Z,7.77
2022-11-04T15:54:54.412Z,6.60
2022-11-04T15:57:40.231Z,5.63
2022-11-04T16:00:14.483Z,6.17
2022-11-04T16:02:50.566Z,4.47
2022-11-04T16:05:22.588Z,5.73
2022-11-04T16:07:52.342Z,11.53
2022-11-04T16:10:31.328Z,9.03
2022-11-04T16:13:03.221Z,4.30
2022-11-04T16:15:40.159Z,8.90
2022-11-04T16:18:21.177Z,19.17
2022-11-04T16:20:48.888Z,8.00
2022-11-04T16:23:19.137Z,8.23
2022-11-04T16:25:46.014Z,7.60
2022-11-04T16:28:20.600Z,7.10
2022-11-04T16:31:22.417Z,8.77
2022-11-04T16:33:50.303Z,12.57
2022-11-04T16:36:23.649Z,9.50
2022-11-04T16:39:04.803Z,5.80
2022-11-04T16:41:36.123Z,9.40
2022-11-04T16:44:04.431Z,7.53
2022-11-04T16:46:32.857Z,9.97
2022-11-04T16:48:59.776Z,13.07
2022-11-04T16:51:26.556Z,6.60
2022-11-04T16:53:54.551Z,6.00
2022-11-04T16:56:24.563Z,12.57
2022-11-04T16:58:52.194Z,11.60
2022-11-04T17:01:19.375Z,8.50
2022-11-04T17:03:46.248Z,12.30
2022-11-04T17:06:15.089Z,10.17
2022-11-04T17:08:42.590Z,6.07
2022-11-04T17:11:12.678Z,7.90
2022-11-04T17:13:39.466Z,7.93
2022-11-04T17:16:07.614Z,9.73
2022-11-04T17:18:35.306Z,8.07
2022-11-04T17:21:06.320Z,6.77
2022-11-04T17:23:33.121Z,6.87
2022-11-04T17:25:59.834Z,6.03
2022-11-04T17:28:26.977Z,9.23
2022-11-04T17:30:53.902Z,7.63
2022-11-04T17:33:20.828Z,31.07
2022-11-04T17:35:49.773Z,11.60
2022-11-04T17:38:17.728Z,15.27
2022-11-04T17:41:03.583Z,19.93
2022-11-04T17:43:48.955Z,15.33
2022-11-04T17:46:34.985Z,20.00
2022-11-04T17:49:12.720Z,20.77
2022-11-04T17:51:41.260Z,30.70
2022-11-04T17:54:08.645Z,27.50
2022-11-04T17:56:35.838Z,20.87
2022-11-04T17:59:04.034Z,18.70
2022-11-04T18:01:32.880Z,17.90
2022-11-04T18:03:59.881Z,17.60
2022-11-04T18:06:26.787Z,18.00
2022-11-04T18:08:54.823Z,21.77
2022-11-04T18:11:41.518Z,24.33
2022-11-04T18:14:13.742Z,20.83
2022-11-04T18:16:44.777Z,28.17
2022-11-04T18:19:12.069Z,23.43
2022-11-04T18:21:38.756Z,16.60
2022-11-04T18:24:25.869Z,13.60
2022-11-04T18:26:52.875Z,9.47
2022-11-04T18:29:20.279Z,6.93
2022-11-04T18:31:49.420Z,11.93
2022-11-04T18:34:19.222Z,6.27
2022-11-04T18:36:47.972Z,9.37
2022-11-04T18:39:16.397Z,9.00
2022-11-04T18:41:43.542Z,9.93
2022-11-04T18:44:16.095Z,14.50
2022-11-04T18:46:43.447Z,12.80
2022-11-04T18:49:11.311Z,16.03
2022-11-04T18:51:37.972Z,15.73
2022-11-04T18:54:05.666Z,14.67
2022-11-04T18:56:33.287Z,12.67
2022-11-04T18:59:00.358Z,16.03
2022-11-04T19:01:30.326Z,19.20
2022-11-04T19:03:57.693Z,24.43
2022-11-04T19:06:27.629Z,16.33
2022-11-04T19:09:04.982Z,14.13
2022-11-04T19:11:42.812Z,10.90
2022-11-04T19:14:14.360Z,11.77
2022-11-04T19:16:42.796Z,13.43
2022-11-04T19:19:13.568Z,11.97
2022-11-04T19:21:40.160Z,14.67
2022-11-04T19:24:08.159Z,12.50
2022-11-04T19:26:36.150Z,12.93
2022-11-04T19:29:06.536Z,8.73
2022-11-04T19:31:33.378Z,7.13
2022-11-04T19:34:04.892Z,7.17
2022-11-04T19:36:33.461Z,6.90
2022-11-04T19:39:00.817Z,6.60
2022-11-04T19:41:46.647Z,6.10
2022-11-04T19:44:15.864Z,5.23
2022-11-04T19:46:43.264Z,5.77
2022-11-04T19:49:10.989Z,6.03
2022-11-04T19:51:37.764Z,8.07
2022-11-04T19:54:05.455Z,7.30
2022-11-04T19:56:33.733Z,5.83
2022-11-04T19:59:05.787Z,4.87
2022-11-04T20:01:34.477Z,6.73
2022-11-04T20:04:05.082Z,5.93
2022-11-04T20:06:33.134Z,8.27
2022-11-04T20:09:08.600Z,6.47
2022-11-04T20:11:56.738Z,10.77
2022-11-04T20:14:24.787Z,7.03
2022-11-04T20:16:52.006Z,5.93
2022-11-04T20:19:22.633Z,7.47
2022-11-04T20:21:50.014Z,8.73
2022-11-04T20:24:17.004Z,9.20
2022-11-04T20:26:44.206Z,8.87
2022-11-04T20:29:11.514Z,7.57
2022-11-04T20:31:39.596Z,8.50
2022-11-04T20:34:08.392Z,12.97
2022-11-04T20:36:36.734Z,8.70
2022-11-04T20:39:09.856Z,8.83
2022-11-04T20:41:36.518Z,8.37
2022-11-04T20:44:04.210Z,6.13
2022-11-04T20:46:34.094Z,8.47
2022-11-04T20:49:03.104Z,14.00
2022-11-04T20:51:32.264Z,10.30
2022-11-04T20:54:02.052Z,11.53
2022-11-04T20:56:31.389Z,8.33
2022-11-04T20:59:00.159Z,8.43
2022-11-04T21:01:33.022Z,6.80
2022-11-04T21:04:15.211Z,8.43
2022-11-04T21:06:42.480Z,9.00
2022-11-04T21:09:11.500Z,10.67
2022-11-04T21:11:39.667Z,5.90
2022-11-04T21:14:12.920Z,7.83
2022-11-04T21:16:40.020Z,5.50
2022-11-04T21:19:07.709Z,11.90
2022-11-04T21:21:35.037Z,10.70
2022-11-04T21:24:04.818Z,6.00
2022-11-04T21:26:34.211Z,11.73
2022-11-04T21:29:06.620Z,6.20
2022-11-04T21:31:36.002Z,7.17
2022-11-04T21:34:03.688Z,8.07
2022-11-04T21:36:31.179Z,6.97
2022-11-04T21:38:59.175Z,6.70
2022-11-04T21:41:28.659Z,6.87
2022-11-04T21:44:00.731Z,8.50
2022-11-04T21:46:30.445Z,5.60
2022-11-04T21:48:57.111Z,4.77
2022-11-04T21:51:26.429Z,5.53
2022-11-04T21:53:53.175Z,8.97
2022-11-04T21:56:23.178Z,6.53
2022-11-04T21:58:51.622Z,8.87
2022-11-04T22:01:20.321Z,8.00
2022-11-04T22:03:54.617Z,8.00
2022-11-04T22:06:21.757Z,10.37
2022-11-04T22:08:54.112Z,8.97
2022-11-04T22:11:26.961Z,8.70
2022-11-04T22:13:58.254Z,6.00
2022-11-04T22:16:27.733Z,13.97
2022-11-04T22:18:56.404Z,9.00
2022-11-04T22:21:24.811Z,8.97
2022-11-04T22:23:52.400Z,8.73
2022-11-04T22:26:28.419Z,10.40
2022-11-04T22:28:56.239Z,11.73
2022-11-04T22:31:25.978Z,9.33
2022-11-04T22:33:53.218Z,10.30
2022-11-04T22:36:23.460Z,10.13
2022-11-04T22:38:50.179Z,15.20
2022-11-04T22:41:22.839Z,10.20
2022-11-04T22:43:49.515Z,7.90
2022-11-04T22:46:24.530Z,6.43
2022-11-04T22:48:51.446Z,8.37
2022-11-04T22:51:18.322Z,7.97
2022-11-04T22:53:45.562Z,7.93
2022-11-04T22:56:14.319Z,9.53
2022-11-04T22:58:41.209Z,6.90
2022-11-04T23:01:10.716Z,6.07
2022-11-04T23:03:37.919Z,9.73
2022-11-04T23:06:08.992Z,7.00
2022-11-04T23:08:37.094Z,10.13
2022-11-04T23:11:27.943Z,10.37
2022-11-04T23:14:20.619Z,17.60
2022-11-04T23:17:12.906Z,16.20
2022-11-04T23:19:39.855Z,14.50
2022-11-04T23:22:26.031Z,14.00
2022-11-04T23:25:05.801Z,16.37
2022-11-04T23:27:55.567Z,17.13
2022-11-04T23:30:24.147Z,14.13
2022-11-04T23:33:16.828Z,12.53
2022-11-04T23:36:07.672Z,14.97
2022-11-04T23:38:35.423Z,12.57
2022-11-04T23:41:24.448Z,15.30
2022-11-04T23:43:51.092Z,15.40
2022-11-04T23:46:42.199Z,14.80
2022-11-04T23:49:12.740Z,18.07
2022-11-04T23:51:58.064Z,15.00
2022-11-04T23:54:43.984Z,16.73
2022-11-04T23:57:35.914Z,17.40
